sensor_id;sensor_type;location;lat;lon;timestamp;P1;durP1;ratioP1;P2;durP2;ratioP2
60344;SDS011;46188;52.324;8.032;2023-03-21T00:00:27;20.17;;;9.13;;
60344;SDS011;46188;52.324;8.032;2023-03-21T00:02:52;16.55;;;9.70;;
60344;SDS011;46188;52.324;8.032;2023-03-21T00:05:18;17.42;;;8.63;;
60344;SDS011;46188;52.324;8.032;2023-03-21T00:07:44;17.55;;;9.60;;
60344;SDS011;46188;52.324;8.032;2023-03-21T00:10:10;17.20;;;9.30;;
60344;SDS011;46188;52.324;8.032;2023-03-21T00:12:35;15.73;;;9.65;;
60344;SDS011;46188;52.324;8.032;2023-03-21T00:15:01;19.38;;;8.93;;
60344;SDS011;46188;52.324;8.032;2023-03-21T00:17:34;19.45;;;9.15;;
60344;SDS011;46188;52.324;8.032;2023-03-21T00:20:00;18.27;;;9.52;;
60344;SDS011;46188;52.324;8.032;2023-03-21T00:22:29;16.45;;;9.13;;
60344;SDS011;46188;52.324;8.032;2023-03-21T00:24:54;19.17;;;9.52;;
60344;SDS011;46188;52.324;8.032;2023-03-21T00:27:20;19.15;;;9.48;;
60344;SDS011;46188;52.324;8.032;2023-03-21T00:29:45;17.17;;;9.10;;
60344;SDS011;46188;52.324;8.032;2023-03-21T00:32:13;25.08;;;9.82;;
60344;SDS011;46188;52.324;8.032;2023-03-21T00:34:39;13.70;;;9.13;;
60344;SDS011;46188;52.324;8.032;2023-03-21T00:37:05;18.30;;;9.05;;
60344;SDS011;46188;52.324;8.032;2023-03-21T00:39:31;18.77;;;9.80;;
60344;SDS011;46188;52.324;8.032;2023-03-21T00:41:57;17.33;;;9.75;;
60344;SDS011;46188;52.324;8.032;2023-03-21T00:44:22;16.13;;;9.32;;
60344;SDS011;46188;52.324;8.032;2023-03-21T00:46:49;16.25;;;9.05;;
60344;SDS011;46188;52.324;8.032;2023-03-21T00:49:14;20.60;;;9.70;;
60344;SDS011;46188;52.324;8.032;2023-03-21T00:51:40;22.00;;;9.82;;
60344;SDS011;46188;52.324;8.032;2023-03-21T00:54:08;18.52;;;10.63;;
60344;SDS011;46188;52.324;8.032;2023-03-21T00:56:35;30.10;;;11.15;;
60344;SDS011;46188;52.324;8.032;2023-03-21T00:59:01;14.93;;;9.93;;
60344;SDS011;46188;52.324;8.032;2023-03-21T01:01:26;15.43;;;9.25;;
60344;SDS011;46188;52.324;8.032;2023-03-21T01:03:56;17.60;;;9.50;;
60344;SDS011;46188;52.324;8.032;2023-03-21T01:06:27;19.10;;;9.40;;
60344;SDS011;46188;52.324;8.032;2023-03-21T01:08:52;15.45;;;9.02;;
60344;SDS011;46188;52.324;8.032;2023-03-21T01:11:20;22.15;;;9.52;;
60344;SDS011;46188;52.324;8.032;2023-03-21T01:13:47;16.95;;;9.55;;
60344;SDS011;46188;52.324;8.032;2023-03-21T01:16:12;15.25;;;9.85;;
60344;SDS011;46188;52.324;8.032;2023-03-21T01:18:38;16.75;;;9.45;;
60344;SDS011;46188;52.324;8.032;2023-03-21T01:21:06;23.05;;;9.85;;
60344;SDS011;46188;52.324;8.032;2023-03-21T01:23:33;17.50;;;8.93;;
60344;SDS011;46188;52.324;8.032;2023-03-21T01:25:58;16.73;;;10.05;;
60344;SDS011;46188;52.324;8.032;2023-03-21T01:28:24;18.38;;;9.80;;
60344;SDS011;46188;52.324;8.032;2023-03-21T01:30:51;17.38;;;10.00;;
60344;SDS011;46188;52.324;8.032;2023-03-21T01:33:17;15.77;;;9.15;;
60344;SDS011;46188;52.324;8.032;2023-03-21T01:35:43;20.88;;;11.15;;
60344;SDS011;46188;52.324;8.032;2023-03-21T01:38:09;17.15;;;9.07;;
60344;SDS011;46188;52.324;8.032;2023-03-21T01:40:35;19.92;;;9.38;;
60344;SDS011;46188;52.324;8.032;2023-03-21T01:43:01;20.38;;;10.25;;
60344;SDS011;46188;52.324;8.032;2023-03-21T01:48:30;18.58;;;9.48;;
60344;SDS011;46188;52.324;8.032;2023-03-21T01:50:56;15.82;;;10.02;;
60344;SDS011;46188;52.324;8.032;2023-03-21T01:53:25;18.65;;;8.85;;
60344;SDS011;46188;52.324;8.032;2023-03-21T01:55:55;16.45;;;9.25;;
60344;SDS011;46188;52.324;8.032;2023-03-21T01:58:21;15.77;;;8.73;;
60344;SDS011;46188;52.324;8.032;2023-03-21T02:00:47;22.40;;;9.25;;
60344;SDS011;46188;52.324;8.032;2023-03-21T02:03:14;21.98;;;10.60;;
60344;SDS011;46188;52.324;8.032;2023-03-21T02:08:17;17.13;;;9.55;;
60344;SDS011;46188;52.324;8.032;2023-03-21T02:10:43;20.90;;;10.52;;
60344;SDS011;46188;52.324;8.032;2023-03-21T02:13:11;18.52;;;9.52;;
60344;SDS011;46188;52.324;8.032;2023-03-21T02:15:37;19.27;;;10.02;;
60344;SDS011;46188;52.324;8.032;2023-03-21T02:18:10;21.25;;;10.30;;
60344;SDS011;46188;52.324;8.032;2023-03-21T02:20:53;17.27;;;9.45;;
60344;SDS011;46188;52.324;8.032;2023-03-21T02:24:03;18.63;;;9.77;;
60344;SDS011;46188;52.324;8.032;2023-03-21T02:26:44;17.65;;;9.50;;
60344;SDS011;46188;52.324;8.032;2023-03-21T02:32:38;21.40;;;10.25;;
60344;SDS011;46188;52.324;8.032;2023-03-21T02:38:30;15.85;;;9.57;;
60344;SDS011;46188;52.324;8.032;2023-03-21T02:41:14;17.90;;;9.57;;
60344;SDS011;46188;52.324;8.032;2023-03-21T02:49:03;21.88;;;10.70;;
60344;SDS011;46188;52.324;8.032;2023-03-21T02:51:36;21.25;;;9.75;;
60344;SDS011;46188;52.324;8.032;2023-03-21T02:54:04;20.83;;;9.85;;
60344;SDS011;46188;52.324;8.032;2023-03-21T02:56:33;21.58;;;10.50;;
60344;SDS011;46188;52.324;8.032;2023-03-21T02:59:01;17.77;;;10.75;;
60344;SDS011;46188;52.324;8.032;2023-03-21T03:01:28;20.05;;;9.90;;
60344;SDS011;46188;52.324;8.032;2023-03-21T03:03:53;19.63;;;9.65;;
60344;SDS011;46188;52.324;8.032;2023-03-21T03:06:20;19.92;;;10.60;;
60344;SDS011;46188;52.324;8.032;2023-03-21T03:11:35;19.05;;;10.40;;
60344;SDS011;46188;52.324;8.032;2023-03-21T03:14:13;22.75;;;9.77;;
60344;SDS011;46188;52.324;8.032;2023-03-21T03:16:59;18.73;;;10.05;;
60344;SDS011;46188;52.324;8.032;2023-03-21T03:19:51;16.27;;;10.30;;
60344;SDS011;46188;52.324;8.032;2023-03-21T03:22:35;18.67;;;11.43;;
60344;SDS011;46188;52.324;8.032;2023-03-21T03:25:10;18.38;;;11.80;;
60344;SDS011;46188;52.324;8.032;2023-03-21T03:27:39;20.10;;;11.27;;
60344;SDS011;46188;52.324;8.032;2023-03-21T03:30:08;18.65;;;10.55;;
60344;SDS011;46188;52.324;8.032;2023-03-21T03:32:44;17.92;;;10.60;;
60344;SDS011;46188;52.324;8.032;2023-03-21T03:35:13;20.67;;;11.68;;
60344;SDS011;46188;52.324;8.032;2023-03-21T03:37:41;20.02;;;10.75;;
60344;SDS011;46188;52.324;8.032;2023-03-21T03:40:23;21.70;;;11.63;;
60344;SDS011;46188;52.324;8.032;2023-03-21T03:42:53;21.23;;;11.82;;
60344;SDS011;46188;52.324;8.032;2023-03-21T03:45:22;18.83;;;11.27;;
60344;SDS011;46188;52.324;8.032;2023-03-21T03:47:54;20.60;;;11.00;;
60344;SDS011;46188;52.324;8.032;2023-03-21T03:50:37;23.55;;;13.15;;
60344;SDS011;46188;52.324;8.032;2023-03-21T03:53:14;18.77;;;11.30;;
60344;SDS011;46188;52.324;8.032;2023-03-21T03:55:52;21.13;;;12.30;;
60344;SDS011;46188;52.324;8.032;2023-03-21T03:58:20;22.83;;;12.73;;
60344;SDS011;46188;52.324;8.032;2023-03-21T04:00:46;19.70;;;12.05;;
60344;SDS011;46188;52.324;8.032;2023-03-21T04:03:12;18.58;;;12.10;;
60344;SDS011;46188;52.324;8.032;2023-03-21T04:05:37;23.67;;;12.73;;
60344;SDS011;46188;52.324;8.032;2023-03-21T04:08:02;20.30;;;13.27;;
60344;SDS011;46188;52.324;8.032;2023-03-21T04:10:28;22.50;;;12.23;;
60344;SDS011;46188;52.324;8.032;2023-03-21T04:12:53;24.15;;;13.30;;
60344;SDS011;46188;52.324;8.032;2023-03-21T04:15:18;24.17;;;13.98;;
60344;SDS011;46188;52.324;8.032;2023-03-21T04:17:44;23.25;;;13.60;;
60344;SDS011;46188;52.324;8.032;2023-03-21T04:20:09;27.60;;;13.48;;
60344;SDS011;46188;52.324;8.032;2023-03-21T04:22:35;23.17;;;13.77;;
60344;SDS011;46188;52.324;8.032;2023-03-21T04:25:00;26.00;;;13.10;;
60344;SDS011;46188;52.324;8.032;2023-03-21T04:27:26;33.42;;;16.13;;
60344;SDS011;46188;52.324;8.032;2023-03-21T04:29:51;24.27;;;13.63;;
60344;SDS011;46188;52.324;8.032;2023-03-21T04:32:17;23.10;;;13.48;;
60344;SDS011;46188;52.324;8.032;2023-03-21T04:34:44;22.55;;;12.35;;
60344;SDS011;46188;52.324;8.032;2023-03-21T04:37:17;21.80;;;14.70;;
60344;SDS011;46188;52.324;8.032;2023-03-21T04:39:43;24.83;;;14.45;;
60344;SDS011;46188;52.324;8.032;2023-03-21T04:42:10;27.65;;;15.30;;
60344;SDS011;46188;52.324;8.032;2023-03-21T04:44:35;25.80;;;14.68;;
60344;SDS011;46188;52.324;8.032;2023-03-21T04:47:00;25.38;;;14.57;;
60344;SDS011;46188;52.324;8.032;2023-03-21T04:49:26;25.10;;;16.85;;
60344;SDS011;46188;52.324;8.032;2023-03-21T04:51:51;26.20;;;15.20;;
60344;SDS011;46188;52.324;8.032;2023-03-21T04:54:17;29.30;;;16.15;;
60344;SDS011;46188;52.324;8.032;2023-03-21T04:56:42;26.27;;;16.05;;
60344;SDS011;46188;52.324;8.032;2023-03-21T04:59:09;29.80;;;17.27;;
60344;SDS011;46188;52.324;8.032;2023-03-21T05:01:36;30.92;;;17.17;;
60344;SDS011;46188;52.324;8.032;2023-03-21T05:04:02;26.75;;;16.50;;
60344;SDS011;46188;52.324;8.032;2023-03-21T05:06:28;28.42;;;16.90;;
60344;SDS011;46188;52.324;8.032;2023-03-21T05:08:55;29.73;;;17.10;;
60344;SDS011;46188;52.324;8.032;2023-03-21T05:11:24;27.10;;;16.48;;
60344;SDS011;46188;52.324;8.032;2023-03-21T05:13:54;28.95;;;17.85;;
60344;SDS011;46188;52.324;8.032;2023-03-21T05:16:20;34.13;;;17.80;;
60344;SDS011;46188;52.324;8.032;2023-03-21T05:18:49;30.13;;;17.23;;
60344;SDS011;46188;52.324;8.032;2023-03-21T05:21:14;30.20;;;17.70;;
60344;SDS011;46188;52.324;8.032;2023-03-21T05:23:42;32.70;;;16.77;;
60344;SDS011;46188;52.324;8.032;2023-03-21T05:26:07;29.30;;;17.67;;
60344;SDS011;46188;52.324;8.032;2023-03-21T05:28:34;33.28;;;17.73;;
60344;SDS011;46188;52.324;8.032;2023-03-21T05:31:04;30.38;;;17.48;;
60344;SDS011;46188;52.324;8.032;2023-03-21T05:33:30;30.02;;;16.58;;
60344;SDS011;46188;52.324;8.032;2023-03-21T05:35:56;26.02;;;16.00;;
60344;SDS011;46188;52.324;8.032;2023-03-21T05:38:21;25.60;;;16.23;;
60344;SDS011;46188;52.324;8.032;2023-03-21T05:40:47;27.23;;;15.88;;
60344;SDS011;46188;52.324;8.032;2023-03-21T05:43:13;32.97;;;17.33;;
60344;SDS011;46188;52.324;8.032;2023-03-21T05:45:39;33.53;;;18.65;;
60344;SDS011;46188;52.324;8.032;2023-03-21T05:48:04;28.25;;;17.92;;
60344;SDS011;46188;52.324;8.032;2023-03-21T05:50:30;34.22;;;19.10;;
60344;SDS011;46188;52.324;8.032;2023-03-21T05:52:55;31.10;;;17.30;;
60344;SDS011;46188;52.324;8.032;2023-03-21T05:55:20;36.08;;;18.63;;
60344;SDS011;46188;52.324;8.032;2023-03-21T05:57:46;30.63;;;17.58;;
60344;SDS011;46188;52.324;8.032;2023-03-21T06:00:11;26.67;;;16.67;;
60344;SDS011;46188;52.324;8.032;2023-03-21T06:02:37;26.38;;;17.23;;
60344;SDS011;46188;52.324;8.032;2023-03-21T06:05:03;29.75;;;17.17;;
60344;SDS011;46188;52.324;8.032;2023-03-21T06:07:30;27.40;;;17.90;;
60344;SDS011;46188;52.324;8.032;2023-03-21T06:09:56;29.48;;;17.15;;
60344;SDS011;46188;52.324;8.032;2023-03-21T06:12:21;27.40;;;17.95;;
60344;SDS011;46188;52.324;8.032;2023-03-21T06:14:46;28.40;;;16.85;;
60344;SDS011;46188;52.324;8.032;2023-03-21T06:17:12;28.17;;;16.42;;
60344;SDS011;46188;52.324;8.032;2023-03-21T06:19:37;34.72;;;17.30;;
60344;SDS011;46188;52.324;8.032;2023-03-21T06:22:02;29.17;;;16.45;;
60344;SDS011;46188;52.324;8.032;2023-03-21T06:24:27;27.23;;;15.57;;
60344;SDS011;46188;52.324;8.032;2023-03-21T06:26:53;35.35;;;17.02;;
60344;SDS011;46188;52.324;8.032;2023-03-21T06:29:18;28.30;;;15.50;;
60344;SDS011;46188;52.324;8.032;2023-03-21T06:31:43;24.70;;;15.90;;
60344;SDS011;46188;52.324;8.032;2023-03-21T06:34:08;28.38;;;15.35;;
60344;SDS011;46188;52.324;8.032;2023-03-21T06:36:35;25.98;;;13.90;;
60344;SDS011;46188;52.324;8.032;2023-03-21T06:39:01;32.35;;;16.00;;
60344;SDS011;46188;52.324;8.032;2023-03-21T06:41:26;26.95;;;15.20;;
60344;SDS011;46188;52.324;8.032;2023-03-21T06:43:52;25.83;;;14.60;;
60344;SDS011;46188;52.324;8.032;2023-03-21T06:46:17;25.38;;;14.13;;
60344;SDS011;46188;52.324;8.032;2023-03-21T06:48:42;25.35;;;14.68;;
60344;SDS011;46188;52.324;8.032;2023-03-21T06:51:12;26.20;;;13.68;;
60344;SDS011;46188;52.324;8.032;2023-03-21T06:53:38;30.83;;;13.98;;
60344;SDS011;46188;52.324;8.032;2023-03-21T06:56:07;26.88;;;13.20;;
60344;SDS011;46188;52.324;8.032;2023-03-21T06:58:33;22.98;;;13.23;;
60344;SDS011;46188;52.324;8.032;2023-03-21T07:00:59;25.27;;;13.85;;
60344;SDS011;46188;52.324;8.032;2023-03-21T07:03:26;21.95;;;13.02;;
60344;SDS011;46188;52.324;8.032;2023-03-21T07:05:52;26.02;;;13.13;;
60344;SDS011;46188;52.324;8.032;2023-03-21T07:08:18;22.80;;;12.65;;
60344;SDS011;46188;52.324;8.032;2023-03-21T07:10:43;23.33;;;12.48;;
60344;SDS011;46188;52.324;8.032;2023-03-21T07:13:11;22.88;;;13.27;;
60344;SDS011;46188;52.324;8.032;2023-03-21T07:15:36;26.88;;;13.88;;
60344;SDS011;46188;52.324;8.032;2023-03-21T07:18:03;20.33;;;12.52;;
60344;SDS011;46188;52.324;8.032;2023-03-21T07:20:29;25.60;;;13.85;;
60344;SDS011;46188;52.324;8.032;2023-03-21T07:22:56;23.88;;;12.63;;
60344;SDS011;46188;52.324;8.032;2023-03-21T07:25:22;28.23;;;13.35;;
60344;SDS011;46188;52.324;8.032;2023-03-21T07:27:48;27.63;;;13.63;;
60344;SDS011;46188;52.324;8.032;2023-03-21T07:30:14;20.38;;;12.70;;
60344;SDS011;46188;52.324;8.032;2023-03-21T07:32:40;28.55;;;14.05;;
60344;SDS011;46188;52.324;8.032;2023-03-21T07:35:06;25.80;;;13.75;;
60344;SDS011;46188;52.324;8.032;2023-03-21T07:37:33;25.92;;;13.68;;
60344;SDS011;46188;52.324;8.032;2023-03-21T07:39:58;27.55;;;14.40;;
60344;SDS011;46188;52.324;8.032;2023-03-21T07:42:23;25.30;;;13.90;;
60344;SDS011;46188;52.324;8.032;2023-03-21T07:44:49;23.20;;;13.55;;
60344;SDS011;46188;52.324;8.032;2023-03-21T07:47:14;23.58;;;13.88;;
60344;SDS011;46188;52.324;8.032;2023-03-21T07:49:40;21.98;;;12.88;;
60344;SDS011;46188;52.324;8.032;2023-03-21T07:52:05;24.92;;;13.98;;
60344;SDS011;46188;52.324;8.032;2023-03-21T07:54:31;31.10;;;16.67;;
60344;SDS011;46188;52.324;8.032;2023-03-21T07:56:57;25.55;;;14.77;;
60344;SDS011;46188;52.324;8.032;2023-03-21T07:59:22;25.90;;;15.02;;
60344;SDS011;46188;52.324;8.032;2023-03-21T08:01:47;24.20;;;14.13;;
60344;SDS011;46188;52.324;8.032;2023-03-21T08:04:13;23.40;;;14.65;;
60344;SDS011;46188;52.324;8.032;2023-03-21T08:06:38;24.20;;;14.73;;
60344;SDS011;46188;52.324;8.032;2023-03-21T08:09:04;27.38;;;15.07;;
60344;SDS011;46188;52.324;8.032;2023-03-21T08:11:30;26.67;;;14.43;;
60344;SDS011;46188;52.324;8.032;2023-03-21T08:13:56;30.83;;;16.58;;
60344;SDS011;46188;52.324;8.032;2023-03-21T08:16:22;27.40;;;14.68;;
60344;SDS011;46188;52.324;8.032;2023-03-21T08:18:47;21.55;;;15.30;;
60344;SDS011;46188;52.324;8.032;2023-03-21T08:21:12;27.88;;;15.40;;
60344;SDS011;46188;52.324;8.032;2023-03-21T08:23:38;26.63;;;13.93;;
60344;SDS011;46188;52.324;8.032;2023-03-21T08:26:03;26.17;;;14.07;;
60344;SDS011;46188;52.324;8.032;2023-03-21T08:28:29;28.42;;;13.65;;
60344;SDS011;46188;52.324;8.032;2023-03-21T08:30:54;21.15;;;13.43;;
60344;SDS011;46188;52.324;8.032;2023-03-21T08:33:20;24.38;;;13.73;;
60344;SDS011;46188;52.324;8.032;2023-03-21T08:35:45;23.88;;;14.60;;
60344;SDS011;46188;52.324;8.032;2023-03-21T08:38:11;23.00;;;14.32;;
60344;SDS011;46188;52.324;8.032;2023-03-21T08:40:36;27.10;;;13.95;;
60344;SDS011;46188;52.324;8.032;2023-03-21T08:43:02;21.02;;;14.43;;
60344;SDS011;46188;52.324;8.032;2023-03-21T08:45:27;22.83;;;14.02;;
60344;SDS011;46188;52.324;8.032;2023-03-21T08:47:53;19.58;;;13.43;;
60344;SDS011;46188;52.324;8.032;2023-03-21T08:50:19;21.42;;;14.25;;
60344;SDS011;46188;52.324;8.032;2023-03-21T08:52:46;23.50;;;14.18;;
60344;SDS011;46188;52.324;8.032;2023-03-21T08:55:13;28.92;;;14.35;;
60344;SDS011;46188;52.324;8.032;2023-03-21T08:57:40;23.02;;;13.50;;
60344;SDS011;46188;52.324;8.032;2023-03-21T09:00:07;26.13;;;13.88;;
60344;SDS011;46188;52.324;8.032;2023-03-21T09:02:38;21.40;;;13.13;;
60344;SDS011;46188;52.324;8.032;2023-03-21T09:05:07;20.45;;;13.65;;
60344;SDS011;46188;52.324;8.032;2023-03-21T09:07:33;21.90;;;13.52;;
60344;SDS011;46188;52.324;8.032;2023-03-21T09:10:01;19.73;;;12.52;;
60344;SDS011;46188;52.324;8.032;2023-03-21T09:12:27;22.35;;;12.88;;
60344;SDS011;46188;52.324;8.032;2023-03-21T09:14:52;19.30;;;14.45;;
60344;SDS011;46188;52.324;8.032;2023-03-21T09:17:18;19.88;;;13.00;;
60344;SDS011;46188;52.324;8.032;2023-03-21T09:19:43;21.50;;;13.00;;
60344;SDS011;46188;52.324;8.032;2023-03-21T09:22:10;20.33;;;13.13;;
60344;SDS011;46188;52.324;8.032;2023-03-21T09:24:41;22.67;;;13.05;;
60344;SDS011;46188;52.324;8.032;2023-03-21T09:27:07;22.88;;;13.30;;
60344;SDS011;46188;52.324;8.032;2023-03-21T09:29:32;22.13;;;13.98;;
60344;SDS011;46188;52.324;8.032;2023-03-21T09:31:58;24.45;;;13.60;;
60344;SDS011;46188;52.324;8.032;2023-03-21T09:34:23;26.25;;;13.32;;
60344;SDS011;46188;52.324;8.032;2023-03-21T09:36:50;23.42;;;13.25;;
60344;SDS011;46188;52.324;8.032;2023-03-21T09:39:20;21.05;;;13.35;;
60344;SDS011;46188;52.324;8.032;2023-03-21T09:47:24;21.08;;;13.05;;
60344;SDS011;46188;52.324;8.032;2023-03-21T09:50:00;17.08;;;11.50;;
60344;SDS011;46188;52.324;8.032;2023-03-21T09:52:32;20.73;;;13.52;;
60344;SDS011;46188;52.324;8.032;2023-03-21T09:55:12;20.95;;;12.60;;
60344;SDS011;46188;52.324;8.032;2023-03-21T09:57:43;21.00;;;11.80;;
60344;SDS011;46188;52.324;8.032;2023-03-21T10:00:14;17.77;;;12.38;;
60344;SDS011;46188;52.324;8.032;2023-03-21T10:02:50;22.17;;;12.20;;
60344;SDS011;46188;52.324;8.032;2023-03-21T10:07:45;18.85;;;11.45;;
60344;SDS011;46188;52.324;8.032;2023-03-21T10:10:21;19.05;;;11.77;;
60344;SDS011;46188;52.324;8.032;2023-03-21T10:12:51;19.98;;;12.27;;
60344;SDS011;46188;52.324;8.032;2023-03-21T10:15:21;21.17;;;12.90;;
60344;SDS011;46188;52.324;8.032;2023-03-21T10:17:50;18.17;;;11.65;;
60344;SDS011;46188;52.324;8.032;2023-03-21T10:22:51;17.30;;;10.98;;
60344;SDS011;46188;52.324;8.032;2023-03-21T10:25:20;18.85;;;11.60;;
60344;SDS011;46188;52.324;8.032;2023-03-21T10:27:48;16.58;;;12.30;;
60344;SDS011;46188;52.324;8.032;2023-03-21T10:32:59;19.35;;;12.65;;
60344;SDS011;46188;52.324;8.032;2023-03-21T10:35:30;18.08;;;12.98;;
60344;SDS011;46188;52.324;8.032;2023-03-21T10:37:58;21.23;;;12.30;;
60344;SDS011;46188;52.324;8.032;2023-03-21T10:40:25;21.02;;;12.13;;
60344;SDS011;46188;52.324;8.032;2023-03-21T10:42:53;19.83;;;12.30;;
60344;SDS011;46188;52.324;8.032;2023-03-21T10:45:20;20.08;;;11.80;;
60344;SDS011;46188;52.324;8.032;2023-03-21T10:47:47;16.75;;;12.13;;
60344;SDS011;46188;52.324;8.032;2023-03-21T10:50:14;18.17;;;11.60;;
60344;SDS011;46188;52.324;8.032;2023-03-21T10:52:45;19.52;;;11.40;;
60344;SDS011;46188;52.324;8.032;2023-03-21T10:55:16;19.05;;;11.65;;
60344;SDS011;46188;52.324;8.032;2023-03-21T10:57:42;17.58;;;12.25;;
60344;SDS011;46188;52.324;8.032;2023-03-21T11:00:10;18.52;;;10.88;;
60344;SDS011;46188;52.324;8.032;2023-03-21T11:02:46;19.05;;;11.30;;
60344;SDS011;46188;52.324;8.032;2023-03-21T11:05:19;19.40;;;12.10;;
60344;SDS011;46188;52.324;8.032;2023-03-21T11:08:14;14.35;;;11.38;;
60344;SDS011;46188;52.324;8.032;2023-03-21T11:13:23;19.98;;;11.95;;
60344;SDS011;46188;52.324;8.032;2023-03-21T11:15:52;17.27;;;10.90;;
60344;SDS011;46188;52.324;8.032;2023-03-21T11:18:23;19.23;;;11.38;;
60344;SDS011;46188;52.324;8.032;2023-03-21T11:23:18;17.33;;;12.70;;
60344;SDS011;46188;52.324;8.032;2023-03-21T11:25:45;19.80;;;12.60;;
60344;SDS011;46188;52.324;8.032;2023-03-21T11:28:13;19.25;;;14.02;;
60344;SDS011;46188;52.324;8.032;2023-03-21T11:30:51;19.63;;;13.32;;
60344;SDS011;46188;52.324;8.032;2023-03-21T11:33:19;18.27;;;14.32;;
60344;SDS011;46188;52.324;8.032;2023-03-21T11:35:59;20.38;;;13.82;;
60344;SDS011;46188;52.324;8.032;2023-03-21T11:38:29;18.27;;;13.50;;
60344;SDS011;46188;52.324;8.032;2023-03-21T11:40:57;15.98;;;12.85;;
60344;SDS011;46188;52.324;8.032;2023-03-21T11:43:25;17.15;;;13.13;;
60344;SDS011;46188;52.324;8.032;2023-03-21T11:48:31;20.67;;;12.68;;
60344;SDS011;46188;52.324;8.032;2023-03-21T11:51:05;24.67;;;12.48;;
60344;SDS011;46188;52.324;8.032;2023-03-21T11:53:39;21.08;;;13.10;;
60344;SDS011;46188;52.324;8.032;2023-03-21T11:56:26;25.70;;;13.52;;
60344;SDS011;46188;52.324;8.032;2023-03-21T11:59:13;17.70;;;12.98;;
60344;SDS011;46188;52.324;8.032;2023-03-21T12:04:46;18.63;;;12.13;;
60344;SDS011;46188;52.324;8.032;2023-03-21T12:07:32;18.77;;;12.45;;
60344;SDS011;46188;52.324;8.032;2023-03-21T12:10:55;17.83;;;11.57;;
60344;SDS011;46188;52.324;8.032;2023-03-21T12:13:28;17.50;;;11.93;;
60344;SDS011;46188;52.324;8.032;2023-03-21T12:29:24;18.23;;;11.35;;
60344;SDS011;46188;52.324;8.032;2023-03-21T12:37:36;18.15;;;11.13;;
60344;SDS011;46188;52.324;8.032;2023-03-21T12:45:24;14.50;;;10.20;;
60344;SDS011;46188;52.324;8.032;2023-03-21T12:47:57;15.75;;;11.10;;
60344;SDS011;46188;52.324;8.032;2023-03-21T12:50:33;13.90;;;9.85;;
60344;SDS011;46188;52.324;8.032;2023-03-21T12:53:36;17.23;;;10.90;;
60344;SDS011;46188;52.324;8.032;2023-03-21T12:56:00;15.10;;;10.43;;
60344;SDS011;46188;52.324;8.032;2023-03-21T12:58:29;17.95;;;12.23;;
60344;SDS011;46188;52.324;8.032;2023-03-21T13:00:59;16.75;;;11.13;;
60344;SDS011;46188;52.324;8.032;2023-03-21T13:06:05;14.73;;;10.77;;
60344;SDS011;46188;52.324;8.032;2023-03-21T13:08:43;18.13;;;11.30;;
60344;SDS011;46188;52.324;8.032;2023-03-21T13:11:14;16.70;;;10.93;;
60344;SDS011;46188;52.324;8.032;2023-03-21T13:13:46;18.08;;;11.02;;
60344;SDS011;46188;52.324;8.032;2023-03-21T13:21:50;15.40;;;10.38;;
60344;SDS011;46188;52.324;8.032;2023-03-21T13:24:31;15.23;;;11.20;;
60344;SDS011;46188;52.324;8.032;2023-03-21T13:26:58;20.23;;;11.85;;
60344;SDS011;46188;52.324;8.032;2023-03-21T13:31:58;15.10;;;10.68;;
60344;SDS011;46188;52.324;8.032;2023-03-21T13:34:32;17.35;;;11.90;;
60344;SDS011;46188;52.324;8.032;2023-03-21T13:36:58;16.23;;;11.95;;
60344;SDS011;46188;52.324;8.032;2023-03-21T13:39:26;16.67;;;10.88;;
60344;SDS011;46188;52.324;8.032;2023-03-21T13:41:53;13.77;;;10.75;;
60344;SDS011;46188;52.324;8.032;2023-03-21T13:44:37;17.80;;;11.82;;
60344;SDS011;46188;52.324;8.032;2023-03-21T13:47:17;14.70;;;9.43;;
60344;SDS011;46188;52.324;8.032;2023-03-21T13:52:42;12.57;;;10.18;;
60344;SDS011;46188;52.324;8.032;2023-03-21T13:55:28;17.08;;;10.18;;
60344;SDS011;46188;52.324;8.032;2023-03-21T13:57:55;11.60;;;8.77;;
60344;SDS011;46188;52.324;8.032;2023-03-21T14:00:21;15.20;;;8.82;;
60344;SDS011;46188;52.324;8.032;2023-03-21T14:02:54;16.70;;;8.98;;
60344;SDS011;46188;52.324;8.032;2023-03-21T14:05:23;13.80;;;9.15;;
60344;SDS011;46188;52.324;8.032;2023-03-21T14:07:52;15.65;;;8.15;;
60344;SDS011;46188;52.324;8.032;2023-03-21T14:12:58;10.10;;;7.13;;
60344;SDS011;46188;52.324;8.032;2023-03-21T14:15:25;10.85;;;6.65;;
60344;SDS011;46188;52.324;8.032;2023-03-21T14:17:55;10.35;;;6.10;;
60344;SDS011;46188;52.324;8.032;2023-03-21T14:20:27;13.82;;;6.60;;
60344;SDS011;46188;52.324;8.032;2023-03-21T14:22:54;15.00;;;6.30;;
60344;SDS011;46188;52.324;8.032;2023-03-21T14:25:21;9.93;;;5.32;;
60344;SDS011;46188;52.324;8.032;2023-03-21T14:27:54;27.25;;;8.18;;
60344;SDS011;46188;52.324;8.032;2023-03-21T14:30:24;8.40;;;6.00;;
60344;SDS011;46188;52.324;8.032;2023-03-21T14:33:14;9.20;;;5.72;;
60344;SDS011;46188;52.324;8.032;2023-03-21T14:35:45;20.98;;;8.10;;
60344;SDS011;46188;52.324;8.032;2023-03-21T14:38:19;11.35;;;6.55;;
60344;SDS011;46188;52.324;8.032;2023-03-21T14:40:46;27.23;;;7.45;;
60344;SDS011;46188;52.324;8.032;2023-03-21T14:43:13;11.25;;;5.40;;
60344;SDS011;46188;52.324;8.032;2023-03-21T14:45:38;9.80;;;6.00;;
60344;SDS011;46188;52.324;8.032;2023-03-21T14:48:05;10.32;;;5.63;;
60344;SDS011;46188;52.324;8.032;2023-03-21T14:50:38;11.35;;;5.68;;
60344;SDS011;46188;52.324;8.032;2023-03-21T14:53:26;41.28;;;7.50;;
60344;SDS011;46188;52.324;8.032;2023-03-21T14:58:39;20.73;;;6.53;;
60344;SDS011;46188;52.324;8.032;2023-03-21T15:01:12;11.20;;;5.43;;
60344;SDS011;46188;52.324;8.032;2023-03-21T15:03:43;9.60;;;4.82;;
60344;SDS011;46188;52.324;8.032;2023-03-21T15:06:10;7.93;;;4.75;;
60344;SDS011;46188;52.324;8.032;2023-03-21T15:08:37;9.95;;;4.40;;
60344;SDS011;46188;52.324;8.032;2023-03-21T15:11:05;10.38;;;4.80;;
60344;SDS011;46188;52.324;8.032;2023-03-21T15:13:36;10.27;;;5.38;;
60344;SDS011;46188;52.324;8.032;2023-03-21T15:16:09;8.65;;;4.95;;
60344;SDS011;46188;52.324;8.032;2023-03-21T15:18:36;9.23;;;5.03;;
60344;SDS011;46188;52.324;8.032;2023-03-21T15:21:04;8.43;;;5.30;;
60344;SDS011;46188;52.324;8.032;2023-03-21T15:23:42;8.02;;;5.10;;
60344;SDS011;46188;52.324;8.032;2023-03-21T15:26:17;7.47;;;4.70;;
60344;SDS011;46188;52.324;8.032;2023-03-21T15:28:45;17.55;;;6.50;;
60344;SDS011;46188;52.324;8.032;2023-03-21T15:31:20;10.57;;;5.38;;
60344;SDS011;46188;52.324;8.032;2023-03-21T15:33:48;21.48;;;6.55;;
60344;SDS011;46188;52.324;8.032;2023-03-21T15:36:20;8.90;;;4.80;;
60344;SDS011;46188;52.324;8.032;2023-03-21T15:38:49;7.90;;;4.28;;
60344;SDS011;46188;52.324;8.032;2023-03-21T15:41:25;7.28;;;4.85;;
60344;SDS011;46188;52.324;8.032;2023-03-21T15:51:36;6.05;;;3.53;;
60344;SDS011;46188;52.324;8.032;2023-03-21T15:54:04;8.60;;;4.20;;
60344;SDS011;46188;52.324;8.032;2023-03-21T15:56:34;6.85;;;4.22;;
60344;SDS011;46188;52.324;8.032;2023-03-21T15:59:00;6.18;;;3.80;;
60344;SDS011;46188;52.324;8.032;2023-03-21T16:01:29;12.52;;;4.15;;
60344;SDS011;46188;52.324;8.032;2023-03-21T16:04:11;12.90;;;4.97;;
60344;SDS011;46188;52.324;8.032;2023-03-21T16:06:37;10.32;;;4.32;;
60344;SDS011;46188;52.324;8.032;2023-03-21T16:09:14;8.98;;;3.78;;
60344;SDS011;46188;52.324;8.032;2023-03-21T16:11:57;9.02;;;3.65;;